createdAt,value
2023-05-03T00:00:08.066Z,8.77
2023-05-03T00:02:39.141Z,8.63
2023-05-03T00:05:08.229Z,8.87
2023-05-03T00:07:35.460Z,8.90
2023-05-03T00:10:02.314Z,8.70
2023-05-03T00:12:28.978Z,9.10
2023-05-03T00:14:55.819Z,10.07
2023-05-03T00:17:22.747Z,8.57
2023-05-03T00:19:49.518Z,9.10
2023-05-03T00:22:16.361Z,8.87
2023-05-03T00:24:43.057Z,10.10
2023-05-03T00:27:09.584Z,8.23
2023-05-03T00:29:36.272Z,8.20
2023-05-03T00:32:03.069Z,8.40
2023-05-03T00:34:29.575Z,8.43
2023-05-03T00:36:56.389Z,9.20
2023-05-03T00:39:22.899Z,9.40
2023-05-03T00:41:49.636Z,8.17
2023-05-03T00:44:16.461Z,9.60
2023-05-03T00:46:43.038Z,7.30
2023-05-03T00:49:09.597Z,9.17
2023-05-03T00:51:36.585Z,10.40
2023-05-03T00:54:03.180Z,8.90
2023-05-03T00:56:32.982Z,8.33
2023-05-03T00:59:05.955Z,9.37
2023-05-03T01:01:33.012Z,9.37
2023-05-03T01:04:03.368Z,9.27
2023-05-03T01:06:33.484Z,8.37
2023-05-03T01:09:11.076Z,9.10
2023-05-03T01:11:56.437Z,8.20
2023-05-03T01:14:28.325Z,9.20
2023-05-03T01:16:58.693Z,7.97
2023-05-03T01:19:32.038Z,8.17
2023-05-03T01:22:17.561Z,10.20
2023-05-03T01:24:47.164Z,8.70
2023-05-03T01:27:13.749Z,8.80
2023-05-03T01:29:40.338Z,10.23
2023-05-03T01:32:09.722Z,11.97
2023-05-03T01:34:53.122Z,9.43
2023-05-03T01:37:20.060Z,9.80
2023-05-03T01:39:46.520Z,11.20
2023-05-03T01:42:14.660Z,10.30
2023-05-03T01:44:41.789Z,9.70
2023-05-03T01:47:08.644Z,10.07
2023-05-03T01:49:35.207Z,10.10
2023-05-03T01:52:01.772Z,9.87
2023-05-03T01:54:28.311Z,9.73
2023-05-03T01:56:55.392Z,9.90
2023-05-03T01:59:21.945Z,9.97
2023-05-03T02:01:48.479Z,10.73
2023-05-03T02:04:15.063Z,9.53
2023-05-03T02:06:41.618Z,10.33
2023-05-03T02:09:08.663Z,9.80
2023-05-03T02:11:35.331Z,10.90
2023-05-03T02:14:01.877Z,10.17
2023-05-03T02:16:29.186Z,9.63
2023-05-03T02:18:59.580Z,10.50
2023-05-03T02:21:27.000Z,10.13
2023-05-03T02:23:54.247Z,10.27
2023-05-03T02:26:22.724Z,9.83
2023-05-03T02:28:49.469Z,10.43
2023-05-03T02:31:16.210Z,11.50
2023-05-03T02:33:43.297Z,10.65
2023-05-03T02:36:09.988Z,11.45
2023-05-03T02:38:36.709Z,11.30
2023-05-03T02:41:03.358Z,9.87
2023-05-03T02:43:30.652Z,11.90
2023-05-03T02:45:57.796Z,11.10
2023-05-03T02:48:25.541Z,9.70
2023-05-03T02:50:52.370Z,11.48
2023-05-03T02:53:19.071Z,11.83
2023-05-03T02:55:46.476Z,11.50
2023-05-03T02:58:13.402Z,11.77
2023-05-03T03:00:40.049Z,9.93
2023-05-03T03:03:06.801Z,9.30
2023-05-03T03:05:33.852Z,11.88
2023-05-03T03:08:00.747Z,11.02
2023-05-03T03:10:28.410Z,10.73
2023-05-03T03:12:55.377Z,12.05
2023-05-03T03:15:32.096Z,11.57
2023-05-03T03:17:58.745Z,12.35
2023-05-03T03:20:27.343Z,11.80
2023-05-03T03:22:54.169Z,13.18
2023-05-03T03:25:21.202Z,13.13
2023-05-03T03:27:47.774Z,11.80
2023-05-03T03:30:14.507Z,11.50
2023-05-03T03:32:52.874Z,11.85
2023-05-03T03:35:27.002Z,12.27
2023-05-03T03:37:53.705Z,15.15
2023-05-03T03:40:22.141Z,13.70
2023-05-03T03:42:51.283Z,14.93
2023-05-03T03:45:18.095Z,14.35
2023-05-03T03:47:44.767Z,11.40
2023-05-03T03:50:11.756Z,12.95
2023-05-03T03:52:38.832Z,13.07
2023-05-03T03:55:06.562Z,13.73
2023-05-03T03:57:33.463Z,11.77
2023-05-03T04:00:00.132Z,12.63
2023-05-03T04:02:28.643Z,12.20
2023-05-03T04:04:55.284Z,11.52
2023-05-03T04:07:22.149Z,12.25
2023-05-03T04:09:49.338Z,11.53
2023-05-03T04:12:16.517Z,13.85
2023-05-03T04:14:45.859Z,12.13
2023-05-03T04:17:12.644Z,13.27
2023-05-03T04:19:39.375Z,15.00
2023-05-03T04:22:07.210Z,11.98
2023-05-03T04:24:35.779Z,12.50
2023-05-03T04:27:04.406Z,11.57
2023-05-03T04:29:33.223Z,12.07
2023-05-03T04:32:01.899Z,13.80
2023-05-03T04:34:30.389Z,12.40
2023-05-03T04:36:57.982Z,12.20
2023-05-03T04:39:25.023Z,12.87
2023-05-03T04:41:52.847Z,12.00
2023-05-03T04:44:21.175Z,12.57
2023-05-03T04:46:51.058Z,11.87
2023-05-03T04:49:17.974Z,12.60
2023-05-03T04:51:44.765Z,11.60
2023-05-03T04:54:11.533Z,14.30
2023-05-03T04:56:38.198Z,11.37
2023-05-03T04:59:11.387Z,12.43
2023-05-03T05:01:37.888Z,12.47
2023-05-03T05:04:05.988Z,12.70
2023-05-03T05:06:39.191Z,11.77
2023-05-03T05:09:07.439Z,11.90
2023-05-03T05:11:34.506Z,12.80
2023-05-03T05:14:01.051Z,11.30
2023-05-03T05:16:31.892Z,10.50
2023-05-03T05:18:58.845Z,11.40
2023-05-03T05:21:27.048Z,10.80
2023-05-03T05:23:53.519Z,13.07
2023-05-03T05:26:20.375Z,13.43
2023-05-03T05:28:47.044Z,10.43
2023-05-03T05:31:13.627Z,12.33
2023-05-03T05:33:40.643Z,10.87
2023-05-03T05:36:07.706Z,9.33
2023-05-03T05:38:34.608Z,10.40
2023-05-03T05:41:01.258Z,12.87
2023-05-03T05:43:27.941Z,9.87
2023-05-03T05:45:55.528Z,8.10
2023-05-03T05:48:23.175Z,9.17
2023-05-03T05:50:50.697Z,8.70
2023-05-03T05:53:17.717Z,9.20
2023-05-03T05:55:51.349Z,8.80
2023-05-03T05:58:18.522Z,8.20
2023-05-03T06:00:49.668Z,7.40
2023-05-03T06:03:17.324Z,6.60
2023-05-03T06:05:45.154Z,8.43
2023-05-03T06:08:11.814Z,8.20
2023-05-03T06:10:38.699Z,8.93
2023-05-03T06:13:06.360Z,7.10
2023-05-03T06:15:34.085Z,6.93
2023-05-03T06:18:00.629Z,8.27
2023-05-03T06:20:27.534Z,7.27
2023-05-03T06:22:54.719Z,6.97
2023-05-03T06:25:21.252Z,6.97
2023-05-03T06:27:49.844Z,7.77
2023-05-03T06:30:18.731Z,7.60
2023-05-03T06:32:47.316Z,7.40
2023-05-03T06:35:14.015Z,7.23
2023-05-03T06:37:40.718Z,6.57
2023-05-03T06:40:07.652Z,6.60
2023-05-03T06:42:36.368Z,6.93
2023-05-03T06:45:08.354Z,6.23
2023-05-03T06:47:37.375Z,6.30
2023-05-03T06:50:04.549Z,7.03
2023-05-03T06:52:32.349Z,7.47
2023-05-03T06:54:59.029Z,7.77
2023-05-03T06:57:28.648Z,8.13
2023-05-03T06:59:55.698Z,9.50
2023-05-03T07:02:22.789Z,7.40
2023-05-03T07:04:49.604Z,8.00
2023-05-03T07:07:16.429Z,8.17
2023-05-03T07:09:44.022Z,7.10
2023-05-03T07:12:11.074Z,9.33
2023-05-03T07:14:38.470Z,6.73
2023-05-03T07:17:05.054Z,5.50
2023-05-03T07:19:32.122Z,8.40
2023-05-03T07:21:59.002Z,7.50
2023-05-03T07:24:28.497Z,8.73
2023-05-03T07:26:55.084Z,9.37
2023-05-03T07:29:21.840Z,9.13
2023-05-03T07:31:48.771Z,9.23
2023-05-03T07:34:16.115Z,7.80
2023-05-03T07:36:42.650Z,5.77
2023-05-03T07:39:09.248Z,8.87
2023-05-03T07:41:36.103Z,10.00
2023-05-03T07:44:02.706Z,8.70
2023-05-03T07:46:34.794Z,8.50
2023-05-03T07:49:02.810Z,8.60
2023-05-03T07:51:29.553Z,9.53
2023-05-03T07:53:59.244Z,6.37
2023-05-03T07:56:27.071Z,6.67
2023-05-03T07:59:04.571Z,6.50
2023-05-03T08:01:35.518Z,6.60
2023-05-03T08:04:02.360Z,7.10
2023-05-03T08:06:29.326Z,7.73
2023-05-03T08:08:56.241Z,7.80
2023-05-03T08:11:22.740Z,7.23
2023-05-03T08:13:49.336Z,7.07
2023-05-03T08:16:16.764Z,6.10
2023-05-03T08:18:43.542Z,6.10
2023-05-03T08:21:12.073Z,7.40
2023-05-03T08:23:38.754Z,8.80
2023-05-03T08:26:07.699Z,8.47
2023-05-03T08:28:34.401Z,6.63
2023-05-03T08:31:03.665Z,6.13
2023-05-03T08:33:30.942Z,7.93
2023-05-03T08:35:57.589Z,7.77
2023-05-03T08:38:24.374Z,6.30
2023-05-03T08:40:51.524Z,7.80
2023-05-03T08:43:20.519Z,9.77
2023-05-03T08:45:47.087Z,8.00
2023-05-03T08:48:13.954Z,6.77
2023-05-03T08:50:42.480Z,8.07
2023-05-03T08:53:09.696Z,4.73
2023-05-03T08:55:36.837Z,9.37
2023-05-03T08:58:10.309Z,8.10
2023-05-03T09:00:36.823Z,7.53
2023-05-03T09:03:04.108Z,5.50
2023-05-03T09:05:30.889Z,7.23
2023-05-03T09:08:02.715Z,7.20
2023-05-03T09:10:30.253Z,8.43
2023-05-03T09:13:03.450Z,9.17
2023-05-03T09:15:30.733Z,7.27
2023-05-03T09:18:06.777Z,4.47
2023-05-03T09:20:37.197Z,4.60
2023-05-03T09:23:03.891Z,7.53
2023-05-03T09:25:51.303Z,7.43
2023-05-03T09:28:18.657Z,7.13
2023-05-03T09:30:45.610Z,5.80
2023-05-03T09:33:12.692Z,7.87
2023-05-03T09:35:55.860Z,6.40
2023-05-03T09:38:27.158Z,6.70
2023-05-03T09:40:53.781Z,8.47
2023-05-03T09:43:20.260Z,8.90
2023-05-03T09:45:46.907Z,6.40
2023-05-03T09:48:13.945Z,7.53
2023-05-03T09:50:41.156Z,8.30
2023-05-03T09:53:08.111Z,8.23
2023-05-03T09:55:38.881Z,8.90
2023-05-03T09:58:06.566Z,7.50
2023-05-03T10:00:37.357Z,9.50
2023-05-03T10:03:08.422Z,9.50
2023-05-03T10:05:38.655Z,7.07
2023-05-03T10:08:05.517Z,9.17
2023-05-03T10:10:32.666Z,7.40
2023-05-03T10:12:59.963Z,8.87
2023-05-03T10:15:27.541Z,6.63
2023-05-03T10:17:56.722Z,8.30
2023-05-03T10:20:24.136Z,6.37
2023-05-03T10:23:12.255Z,7.27
2023-05-03T10:25:39.764Z,7.77
2023-05-03T10:28:07.304Z,8.10
2023-05-03T10:30:37.951Z,7.73
2023-05-03T10:33:13.782Z,7.63
2023-05-03T10:35:42.004Z,6.10
2023-05-03T10:38:15.464Z,7.87
2023-05-03T10:40:45.445Z,7.30
2023-05-03T10:43:31.218Z,7.10
2023-05-03T10:45:58.509Z,5.00
2023-05-03T10:48:25.517Z,8.17
2023-05-03T10:50:52.818Z,7.57
2023-05-03T10:53:35.368Z,7.67
2023-05-03T10:56:08.218Z,8.73
2023-05-03T10:58:36.368Z,5.80
2023-05-03T11:01:04.153Z,8.57
2023-05-03T11:03:42.431Z,8.77
2023-05-03T11:06:09.152Z,8.67
2023-05-03T11:08:37.823Z,6.13
2023-05-03T11:11:09.831Z,4.90
2023-05-03T11:13:37.263Z,7.67
2023-05-03T11:16:07.579Z,6.90
2023-05-03T11:18:34.320Z,7.57
2023-05-03T11:21:01.225Z,6.70
2023-05-03T11:23:28.982Z,7.47
2023-05-03T11:25:57.626Z,6.77
2023-05-03T11:28:24.725Z,7.37
2023-05-03T11:30:51.335Z,7.80
2023-05-03T11:33:17.895Z,8.70
2023-05-03T11:35:44.782Z,8.73
2023-05-03T11:38:11.478Z,9.40
2023-05-03T11:40:39.870Z,9.17
2023-05-03T11:43:09.585Z,5.10
2023-05-03T11:45:41.119Z,6.57
2023-05-03T11:48:08.158Z,9.50
2023-05-03T11:50:47.086Z,8.63
2023-05-03T11:53:17.596Z,10.77
2023-05-03T11:55:48.365Z,9.50
2023-05-03T11:58:15.715Z,8.63
2023-05-03T12:00:50.176Z,9.77
2023-05-03T12:03:31.177Z,9.90
2023-05-03T12:05:59.807Z,7.97
2023-05-03T12:08:36.366Z,9.23
2023-05-03T12:11:06.628Z,8.77
2023-05-03T12:13:39.327Z,7.70
2023-05-03T12:16:11.555Z,9.03
2023-05-03T12:18:51.638Z,8.17
2023-05-03T12:23:50.548Z,8.50
2023-05-03T12:26:19.131Z,7.27
2023-05-03T12:28:46.980Z,7.67
2023-05-03T12:31:17.438Z,6.63
2023-05-03T12:33:53.892Z,6.07
2023-05-03T12:36:37.133Z,7.63
2023-05-03T12:39:09.179Z,9.00
2023-05-03T12:44:09.958Z,8.07
2023-05-03T12:46:38.379Z,7.60
2023-05-03T12:49:08.075Z,8.43
2023-05-03T12:51:35.627Z,9.10
2023-05-03T12:54:03.607Z,8.17
2023-05-03T12:56:32.541Z,7.27
2023-05-03T12:59:23.263Z,7.80
2023-05-03T13:03:08.442Z,8.30
2023-05-03T13:04:57.009Z,7.10
2023-05-03T13:07:28.083Z,9.40
2023-05-03T13:12:26.247Z,7.67
2023-05-03T13:14:53.845Z,8.27
2023-05-03T13:17:22.510Z,7.20
2023-05-03T13:19:50.150Z,7.90
2023-05-03T13:22:17.096Z,7.80
2023-05-03T13:24:44.653Z,6.77
2023-05-03T13:27:14.146Z,7.40
2023-05-03T13:29:40.986Z,7.70
2023-05-03T13:32:08.164Z,8.40
2023-05-03T13:34:35.689Z,6.93
2023-05-03T13:37:02.695Z,6.20
2023-05-03T13:39:29.272Z,7.23
2023-05-03T13:41:56.162Z,6.50
2023-05-03T13:44:25.361Z,6.80
2023-05-03T13:46:52.558Z,6.67
2023-05-03T13:49:19.663Z,7.07
2023-05-03T13:51:46.238Z,8.03
2023-05-03T13:54:12.947Z,7.87
2023-05-03T13:56:41.477Z,7.10
2023-05-03T13:59:11.310Z,6.17
2023-05-03T14:01:38.234Z,6.63
2023-05-03T14:04:05.515Z,7.10
2023-05-03T14:06:33.499Z,6.43
2023-05-03T14:09:02.002Z,7.23
2023-05-03T14:11:30.090Z,7.23
2023-05-03T14:13:58.266Z,7.63
2023-05-03T14:18:56.075Z,6.73
2023-05-03T14:21:23.031Z,7.83
2023-05-03T14:23:54.162Z,6.60
2023-05-03T14:26:22.204Z,6.20
2023-05-03T14:28:48.898Z,7.33
2023-05-03T14:31:16.761Z,7.53
2023-05-03T14:33:44.638Z,6.77
2023-05-03T14:36:11.446Z,8.00
2023-05-03T14:38:38.076Z,7.43
2023-05-03T14:41:04.856Z,7.47
2023-05-03T14:43:32.168Z,5.87
2023-05-03T14:45:58.817Z,6.23
2023-05-03T14:48:25.457Z,6.93
2023-05-03T14:50:52.717Z,7.23
2023-05-03T14:53:19.358Z,7.47
2023-05-03T14:55:46.503Z,7.10
2023-05-03T14:58:13.467Z,7.20
2023-05-03T15:00:40.915Z,7.10
2023-05-03T15:03:11.392Z,6.47
2023-05-03T15:05:48.540Z,8.00
2023-05-03T15:08:16.735Z,7.90
2023-05-03T15:10:44.458Z,7.37
2023-05-03T15:13:15.601Z,7.47
2023-05-03T15:15:45.991Z,7.60
2023-05-03T15:18:14.614Z,7.07
2023-05-03T15:20:41.499Z,7.50
2023-05-03T15:23:08.263Z,7.27
2023-05-03T15:25:35.701Z,7.77
2023-05-03T15:28:04.248Z,7.13
2023-05-03T15:30:32.070Z,7.63
2023-05-03T15:32:58.889Z,9.20
2023-05-03T15:35:25.519Z,8.47
2023-05-03T15:37:52.227Z,7.40
2023-05-03T15:40:23.729Z,8.37
2023-05-03T15:42:52.253Z,7.50
2023-05-03T15:45:23.489Z,6.80
2023-05-03T15:47:50.443Z,7.67
2023-05-03T15:50:17.224Z,7.83
2023-05-03T15:52:46.315Z,7.90
2023-05-03T15:55:13.093Z,7.40
2023-05-03T15:57:40.953Z,7.73
2023-05-03T16:00:09.339Z,7.47
2023-05-03T16:02:36.183Z,6.97
2023-05-03T16:05:02.877Z,6.47
2023-05-03T16:07:30.077Z,8.77
2023-05-03T16:09:57.060Z,7.80
2023-05-03T16:12:24.525Z,7.73
2023-05-03T16:14:51.325Z,7.20
2023-05-03T16:17:18.084Z,7.17
2023-05-03T16:19:44.659Z,7.60
2023-05-03T16:22:11.606Z,7.07
2023-05-03T16:24:38.608Z,7.77
2023-05-03T16:27:05.339Z,7.23
2023-05-03T16:29:33.439Z,6.53
2023-05-03T16:32:00.775Z,7.10
2023-05-03T16:34:27.838Z,7.37
2023-05-03T16:36:54.536Z,6.70
2023-05-03T16:39:21.398Z,7.90
2023-05-03T16:41:48.108Z,7.50
2023-05-03T16:44:18.472Z,7.37
2023-05-03T16:46:45.395Z,8.23
2023-05-03T16:49:12.093Z,6.87
2023-05-03T16:51:40.891Z,7.17
2023-05-03T16:54:07.530Z,7.90
2023-05-03T16:56:34.299Z,7.20
2023-05-03T16:59:01.182Z,8.10
2023-05-03T17:01:28.070Z,7.60
2023-05-03T17:03:55.256Z,7.67
2023-05-03T17:06:22.229Z,7.07
2023-05-03T17:08:48.843Z,8.37
2023-05-03T17:11:16.139Z,7.00
2023-05-03T17:13:42.870Z,6.27
2023-05-03T17:16:10.465Z,5.93
2023-05-03T17:18:37.595Z,7.40
2023-05-03T17:21:04.808Z,8.30
2023-05-03T17:23:36.031Z,6.23
2023-05-03T17:26:03.644Z,6.43
2023-05-03T17:28:30.583Z,7.60
2023-05-03T17:30:57.344Z,6.63
2023-05-03T17:33:24.752Z,7.13
2023-05-03T17:35:51.940Z,6.03
2023-05-03T17:38:18.761Z,5.53
2023-05-03T17:40:46.039Z,6.03
2023-05-03T17:43:12.877Z,6.00
2023-05-03T17:45:42.862Z,6.83
2023-05-03T17:48:09.538Z,7.17
2023-05-03T17:50:36.349Z,6.77
2023-05-03T17:53:03.154Z,7.20
2023-05-03T17:55:29.976Z,6.33
2023-05-03T17:57:56.715Z,6.30
2023-05-03T18:00:25.452Z,6.60
2023-05-03T18:02:52.192Z,6.80
2023-05-03T18:05:19.005Z,7.10
2023-05-03T18:07:46.454Z,7.50
2023-05-03T18:10:14.621Z,7.17
2023-05-03T18:12:41.817Z,6.70
2023-05-03T18:15:08.671Z,7.23
2023-05-03T18:17:35.307Z,7.60
2023-05-03T18:20:02.588Z,7.27
2023-05-03T18:22:29.679Z,6.97
2023-05-03T18:24:58.970Z,8.67
2023-05-03T18:27:25.527Z,7.47
2023-05-03T18:29:52.124Z,8.10
2023-05-03T18:32:18.777Z,8.67
2023-05-03T18:34:45.458Z,8.23
2023-05-03T18:37:12.593Z,7.63
2023-05-03T18:39:39.643Z,7.50
2023-05-03T18:42:06.439Z,8.73
2023-05-03T18:44:33.013Z,8.90
2023-05-03T18:47:00.803Z,8.03
2023-05-03T18:49:27.702Z,9.00
2023-05-03T18:51:54.361Z,8.67
2023-05-03T18:54:20.926Z,8.63
2023-05-03T18:56:47.694Z,8.70
2023-05-03T18:59:14.309Z,9.67
2023-05-03T19:01:40.910Z,10.00
2023-05-03T19:04:07.920Z,8.00
2023-05-03T19:06:34.525Z,9.30
2023-05-03T19:09:02.033Z,9.77
2023-05-03T19:11:28.599Z,9.40
2023-05-03T19:13:55.409Z,9.33
2023-05-03T19:16:22.102Z,9.47
2023-05-03T19:18:48.652Z,10.47
2023-05-03T19:21:17.393Z,9.67
2023-05-03T19:23:44.508Z,9.40
2023-05-03T19:26:11.180Z,9.80
2023-05-03T19:28:37.759Z,8.97
2023-05-03T19:31:04.962Z,8.67
2023-05-03T19:33:31.825Z,9.33
2023-05-03T19:35:58.529Z,10.13
2023-05-03T19:38:25.276Z,8.63
2023-05-03T19:40:59.043Z,8.37
2023-05-03T19:43:25.837Z,9.03
2023-05-03T19:45:52.977Z,8.70
2023-05-03T19:48:19.646Z,8.97
2023-05-03T19:50:47.553Z,8.23
2023-05-03T19:53:14.300Z,8.10
2023-05-03T19:55:41.798Z,8.93
2023-05-03T19:58:08.481Z,8.03
2023-05-03T20:00:35.059Z,8.97
2023-05-03T20:03:01.837Z,7.70
2023-05-03T20:05:28.539Z,7.97
2023-05-03T20:07:55.123Z,7.63
2023-05-03T20:10:21.711Z,9.10
2023-05-03T20:12:48.393Z,8.27
2023-05-03T20:15:15.043Z,7.90
2023-05-03T20:17:41.694Z,7.73
2023-05-03T20:20:12.091Z,9.17
2023-05-03T20:22:38.670Z,8.00
2023-05-03T20:25:05.439Z,8.47
2023-05-03T20:27:31.976Z,7.80
2023-05-03T20:29:58.650Z,9.13
2023-05-03T20:32:25.201Z,7.83
2023-05-03T20:34:51.789Z,7.30
2023-05-03T20:37:18.988Z,8.33
2023-05-03T20:39:45.816Z,8.67
2023-05-03T20:42:12.303Z,7.60
2023-05-03T20:44:38.985Z,7.90
2023-05-03T20:47:05.699Z,7.17
2023-05-03T20:49:32.301Z,7.77
2023-05-03T20:51:58.923Z,7.67
2023-05-03T20:54:25.511Z,6.40
2023-05-03T20:56:52.059Z,6.73
2023-05-03T20:59:18.553Z,6.83
2023-05-03T21:01:45.199Z,7.83
2023-05-03T21:04:11.801Z,6.63
2023-05-03T21:06:38.409Z,7.73
2023-05-03T21:09:05.845Z,6.60
2023-05-03T21:11:32.448Z,6.17
2023-05-03T21:14:01.556Z,6.63
2023-05-03T21:16:28.590Z,6.77
2023-05-03T21:18:55.695Z,6.40
2023-05-03T21:21:22.508Z,5.40
2023-05-03T21:23:49.394Z,5.87
2023-05-03T21:26:16.088Z,6.87
2023-05-03T21:28:42.594Z,6.60
2023-05-03T21:31:09.519Z,7.77
2023-05-03T21:33:36.057Z,6.73
2023-05-03T21:36:02.623Z,6.50
2023-05-03T21:38:29.151Z,6.10
2023-05-03T21:41:07.972Z,6.00
2023-05-03T21:43:35.381Z,6.90
2023-05-03T21:46:04.355Z,7.00
2023-05-03T21:48:31.650Z,6.00
2023-05-03T21:50:58.224Z,5.80
2023-05-03T21:53:24.889Z,7.20
2023-05-03T21:55:51.390Z,6.07
2023-05-03T21:58:17.953Z,7.90
2023-05-03T22:00:44.518Z,6.43
2023-05-03T22:03:11.145Z,7.10
2023-05-03T22:05:38.242Z,7.70
2023-05-03T22:08:05.965Z,7.60
2023-05-03T22:10:32.727Z,6.00
2023-05-03T22:12:59.876Z,7.37
2023-05-03T22:15:26.616Z,6.87
2023-05-03T22:17:53.237Z,7.03
2023-05-03T22:20:19.943Z,6.50
2023-05-03T22:22:46.459Z,6.57
2023-05-03T22:25:21.638Z,6.83
2023-05-03T22:27:48.200Z,7.83
2023-05-03T22:30:14.708Z,6.90
2023-05-03T22:32:41.303Z,8.00
2023-05-03T22:35:09.327Z,7.50
2023-05-03T22:37:36.065Z,7.67
2023-05-03T22:40:02.983Z,6.90
2023-05-03T22:42:30.315Z,7.63
2023-05-03T22:44:57.499Z,8.57
2023-05-03T22:47:24.353Z,7.90
2023-05-03T22:49:51.066Z,7.13
2023-05-03T22:52:17.821Z,8.07
2023-05-03T22:54:44.347Z,7.53
2023-05-03T22:57:10.969Z,7.73
2023-05-03T22:59:37.678Z,8.83
2023-05-03T23:02:04.189Z,7.50
2023-05-03T23:04:30.964Z,8.20
2023-05-03T23:06:57.568Z,7.97
2023-05-03T23:09:24.028Z,8.37
2023-05-03T23:11:50.648Z,7.70
2023-05-03T23:14:17.496Z,8.40
2023-05-03T23:16:44.015Z,7.53
2023-05-03T23:19:10.598Z,8.60
2023-05-03T23:21:37.688Z,8.80
2023-05-03T23:24:04.303Z,8.83
2023-05-03T23:26:30.795Z,7.90
2023-05-03T23:28:57.757Z,7.20
2023-05-03T23:31:24.573Z,8.27
2023-05-03T23:33:51.737Z,8.10
2023-05-03T23:36:18.323Z,7.17
2023-05-03T23:38:44.802Z,7.63
2023-05-03T23:41:11.256Z,7.83
2023-05-03T23:43:37.812Z,8.27
2023-05-03T23:46:04.396Z,8.00
2023-05-03T23:48:31.447Z,8.00
2023-05-03T23:50:57.991Z,8.20
2023-05-03T23:53:24.449Z,9.67
2023-05-03T23:55:51.490Z,8.93
2023-05-03T23:58:18.106Z,8.30
